• Join FlightAware (Why Join?)
  • Login
  • US Flag 
05:19AM EST


 

Airport Tracker/Info


-or-


 

Live Flight TrackerFlight Track Log ✈ UAL3776 ✈ 04-May-2013 ✈ KORD - KATL

Flight Track Log - Related Links

Times and Time Zones

All times are in EDT time to prevent confusion due to time zone crossing. See the UAL3776 flight status page for this flight to view local times or setup timezone preferences in your user account.

Time Position Orientation Groundspeed Altitude Reporting Facility
EDT Latitude Longitude Course Direction KTS MPH feet Rate Location/Type
08:57PM 41.9333 -87.8667 185° South 200 230 3,600  Level Chicago TRACON
08:59PM 41.8039 -87.8661 180° South 260 299 8,200 2,400 Climbing Chicago Center
09:00PM 41.7256 -87.8694 182° South 279 321 10,800 2,640 Climbing Chicago Center
09:01PM 41.6478 -87.8722 182° South 280 322 13,600 1,860 Climbing Chicago Center
09:02PM 41.3840 -87.6276 185° South  Level Estimated
09:02PM 41.5583 -87.8744 181° South 325 374 14,700  Level Chicago Center
09:03PM 41.4606 -87.8781 182° South 346 398 16,800 1,980 Climbing Chicago Center
09:04PM 41.3608 -87.8828 182° South 352 405 18,800 1,800 Climbing Chicago Center
09:05PM 41.2572 -87.8925 184° South 366 421 20,500 1,560 Climbing Chicago Center
09:06PM 41.1522 -87.8908 179° South 375 432 22,000 1,380 Climbing Chicago Center
09:07PM 41.0436 -87.8883 179° South 389 448 23,400 1,380 Climbing Chicago Center
09:08PM 40.9333 -87.8833 178° South 396 456 24,900 1,320 Climbing Chicago Center
09:09PM 40.8206 -87.8797 179° South 404 465 26,100 1,320 Climbing Chicago Center
09:10PM 40.6833 -87.8758 179° South 412 474 27,600 1,320 Climbing Chicago Center
09:11PM 40.5689 -87.8728 179° South 413 475 28,900 1,140 Climbing Chicago Center
09:12PM 40.4533 -87.8686 178° South 417 480 30,000 960 Climbing Chicago Center
09:13PM 40.3600 -87.8669 179° South 419 482 30,700 840 Climbing Indianapolis Center
09:14PM 40.2425 -87.8628 178° South 423 487 31,500 1,020 Climbing Indianapolis Center
09:15PM 40.1247 -87.8575 178° South 426 490 32,800 720 Climbing Indianapolis Center
09:16PM 40.0103 -87.8378 172° South 419 482 33,000 60 Climbing Indianapolis Center
09:17PM 39.9011 -87.8039 167° South 407 468 33,000  Level Indianapolis Center
09:18PM 39.7917 -87.7711 167° South 405 466 33,000  Level Indianapolis Center
09:19PM 39.6850 -87.7364 166° South 400 460 33,000  Level Indianapolis Center
09:20PM 39.5761 -87.7017 166° South 405 466 33,000  Level Indianapolis Center
09:21PM 39.4408 -87.6611 167° South 415 478 33,000  Level Indianapolis Center
09:22PM 39.3342 -87.6281 167° South 401 461 33,000  Level Indianapolis Center
09:23PM 39.2283 -87.5953 167° South 396 456 33,000  Level Indianapolis Center
09:24PM 39.1214 -87.5622 167° South 396 456 33,000  Level Indianapolis Center
09:25PM 39.0114 -87.5294 167° South 399 459 33,000  Level Indianapolis Center
09:26PM 38.9033 -87.4953 166° South 399 459 33,000  Level Indianapolis Center
09:27PM 38.7972 -87.4639 167° South 392 451 33,000  Level Indianapolis Center
09:28PM 38.6936 -87.4333 167° South 384 442 33,000  Level Indianapolis Center
09:29PM 38.5906 -87.4008 166° South 382 440 33,000  Level Indianapolis Center
09:30PM 38.4861 -87.3694 167° South 384 442 33,000  Level Indianapolis Center
09:31PM 38.3811 -87.3381 167° South 389 448 33,000  Level Indianapolis Center
09:32PM 38.2767 -87.3075 167° South 390 449 33,000  Level Indianapolis Center
09:33PM 38.1536 -87.2703 167° South 381 438 33,000  Level Indianapolis Center
09:34PM 38.0531 -87.2400 167° South 375 432 33,000  Level Indianapolis Center
09:35PM 37.9517 -87.2097 167° South 374 430 33,000  Level Indianapolis Center
09:36PM 37.8508 -87.1800 167° South 372 428 33,000  Level Indianapolis Center
09:37PM 37.7489 -87.1486 166° South 376 433 33,000  Level Indianapolis Center
09:38PM 37.6450 -87.1186 167° South 381 438 33,000  Level Indianapolis Center
09:39PM 37.5367 -87.0906 168° South 379 436 33,000  Level Memphis Center
09:40PM 37.4317 -87.0608 167° South 384 442 33,000  Level Memphis Center
09:41PM 37.3267 -87.0289 166° South 390 449 33,100  Climbing Memphis Center
09:42PM 37.2175 -86.9944 166° South 396 456 33,000 -60 Descending Memphis Center
09:43PM 37.1142 -86.9467 160° South 402 463 33,000  Level Memphis Center
09:44PM 37.0044 -86.9019 162° South 407 468 33,000  Level Memphis Center
09:45PM 36.8992 -86.8547 160° South 407 468 33,000  Level Memphis Center
09:46PM 36.7894 -86.8075 161° South 412 474 33,000  Level Memphis Center
09:47PM 36.6944 -86.7653 160° South 412 474 33,000  Level Memphis Center
09:48PM 36.5867 -86.7183 161° South 404 465 33,000  Level Memphis Center
09:49PM 36.4769 -86.6717 161° South 409 471 33,000  Level Memphis Center
09:50PM 36.3544 -86.6206 161° South 414 476 33,000  Level Memphis Center
09:51PM 36.2425 -86.5717 161° South 414 476 33,000  Level Memphis Center
09:52PM 36.1328 -86.5278 162° South 420 483 33,000  Level Memphis Center
09:53PM 36.0208 -86.4819 162° South 420 483 33,000  Level Memphis Center
09:54PM 35.9131 -86.4356 161° South 420 483 33,000  Level Memphis Center
09:56PM 35.6992 -86.3275 158° South 419 482 33,000  Level Atlanta Center
09:57PM 35.5983 -86.2481 147° Southeast 424 488 33,000  Level Atlanta Center
09:58PM 35.5036 -86.1689 146° Southeast 424 488 33,000  Level Atlanta Center
09:59PM 35.4172 -86.1006 147° Southeast 419 482 33,000  Level Atlanta Center
10:00PM 35.3247 -86.0269 147° Southeast 406 467 33,000 -960 Level Atlanta Center
10:01PM 35.2278 -85.9508 147° Southeast 411 473 31,100 -2,160 Descending Atlanta Center
10:02PM 35.1308 -85.8775 148° Southeast 395 455 28,700 -2,640 Descending Atlanta Center
10:03PM 35.0442 -85.8094 147° Southeast 377 434 25,900 -2,400 Descending Atlanta Center
10:04PM 34.9594 -85.7419 147° Southeast 371 427 24,000 -960 Descending Atlanta Center
10:05PM 34.8708 -85.6717 147° Southeast 371 427 24,000  Level Atlanta Center
10:06PM 34.7819 -85.6042 148° Southeast 371 427 24,000  Level Atlanta Center
10:07PM 34.6950 -85.5369 148° Southeast 371 427 24,000 -360 Level Atlanta Center
10:08PM 34.6083 -85.4672 146° Southeast 378 435 23,300 -1,560 Descending Atlanta Center
10:09PM 34.5233 -85.4028 148° Southeast 373 429 20,900 -2,400 Descending Atlanta Center
10:10PM 34.4447 -85.3411 147° Southeast 361 415 18,600 -2,220 Descending Atlanta Center
10:11PM 34.3744 -85.2847 146° Southeast 347 399 16,500 -2,220 Descending Atlanta Center
10:12PM 34.2958 -85.2256 148° Southeast 335 386 14,200 -1,740 Descending Atlanta Center
10:13PM 34.2211 -85.1667 147° Southeast 329 379 13,100 -600 Descending Atlanta Center
10:14PM 34.1592 -85.1108 143° Southeast 304 350 13,100  Level Atlanta Center
10:15PM 34.1053 -85.0472 136° Southeast 276 318 13,100 -480 Level Atlanta Center
10:16PM 34.0536 -84.9817 134° Southeast 265 305 12,200 -1,200 Descending Atlanta Center
10:17PM 33.9978 -84.9108 134° Southeast 265 305 10,700 -1,080 Descending Atlanta Center
10:18PM 33.9461 -84.8428 132° Southeast 272 313 10,100 -720 Descending Atlanta Center
10:19PM 33.8817 -84.8019 152° Southeast 272 313 9,300 -1,200 Descending Atlanta Center
10:20PM 33.8128 -84.7839 168° South 256 295 7,700 -1,560 Descending Atlanta Center
10:21PM 33.7442 -84.7658 168° South 256 295 6,200 -1,500 Descending Atlanta Center
10:22PM 33.6753 -84.7528 171° South 256 295 4,700 -900 Descending Atlanta Center
10:23PM 33.6500 -84.6667 109° East 192 221 4,100 -300 Descending Atlanta TRACON
10:25PM 33.6500 -84.6167 90° East 166 191 4,100 -540 Level Atlanta TRACON
10:26PM 33.6500 -84.5667 90° East 170 196 3,000 -960 Descending Atlanta TRACON
10:26PM 33.6500 -84.5167 90° East 151 174 2,400 -780 Descending Atlanta TRACON
10:27PM 33.6500 -84.4833 90° East 133 153 1,700 -780 Descending Atlanta TRACON
10:29PM 33.6367 -84.4279 North  Level Estimated
10:36PM 33.6367 -84.4279 North  Level Estimated
10:37PM 33.6367 -84.4279 North  Level Estimated